Time;durP1;ratioP1;P1;durP2;ratioP2;P2;SDS_P1;SDS_P2;PMS_P1;PMS_P2;Temp;Humidity;BMP_temperature;BMP_pressure;BME280_temperature;BME280_humidity;BME280_pressure;Samples;Min_cycle;Max_cycle;Signal;HPM_P1;HPM_P2
2022/12/26 00:01:48;;;;;;;;;;;;;;;15.84;60.09;99956.97;4955245;28;6879;-71
2022/12/26 00:04:15;;;;;;;;;;;;;;;15.85;59.89;99947.47;4978384;28;6978;-72
2022/12/26 00:06:41;;;;;;;;;;;;;;;15.83;60.03;99960.38;4957742;28;6849;-72
2022/12/26 00:09:07;;;;;;;;;;;;;;;15.80;60.01;99957.72;4958119;28;6852;-72
2022/12/26 00:11:33;;;;;;;;;;;;;;;15.76;60.07;99959.38;4960080;28;6804;-72
2022/12/26 00:14:05;;;;;;;;;;;;;;;15.77;60.31;99965.44;4967940;28;6796;-72
2022/12/26 00:16:32;;;;;;;;;;;;;;;15.77;60.41;99960.25;4953355;28;7080;-72
2022/12/26 00:18:57;;;;;;;;;;;;;;;15.82;59.76;99959.50;4977427;28;6992;-71
2022/12/26 00:21:26;;;;;;;;;;;;;;;15.83;60.23;99965.53;4957865;28;7625;-72
2022/12/26 00:23:52;;;;;;;;;;;;;;;15.89;59.85;99970.84;4959441;28;6792;-71
2022/12/26 00:26:21;;;;;;;;;;;;;;;15.90;60.02;99957.09;4951021;28;7748;-72
2022/12/26 00:28:48;;;;;;;;;;;;;;;15.91;59.89;99973.50;4952814;28;6824;-72
2022/12/26 00:31:18;;;;;;;;;;;;;;;15.96;59.47;99970.16;4955798;28;7123;-72
2022/12/26 00:33:45;;;;;;;;;;;;;;;15.97;59.67;99965.84;4954208;28;6868;-72
2022/12/26 00:36:17;;;;;;;;;;;;;;;16.01;59.50;99964.19;4957123;28;6849;-71
2022/12/26 00:38:44;;;;;;;;;;;;;;;16.04;59.41;99978.03;4982209;28;7007;-72
2022/12/26 00:41:12;;;;;;;;;;;;;;;16.07;59.69;99983.25;4981082;28;8507;-72
2022/12/26 00:43:37;;;;;;;;;;;;;;;16.09;58.91;99981.59;4954393;28;6804;-71
2022/12/26 00:46:03;;;;;;;;;;;;;;;16.15;59.51;99980.84;4957076;28;6892;-72
2022/12/26 00:48:29;;;;;;;;;;;;;;;16.19;59.66;99982.63;4962935;28;6796;-72
2022/12/26 00:50:56;;;;;;;;;;;;;;;16.22;58.88;99974.06;4975143;28;7052;-72
2022/12/26 00:53:22;;;;;;;;;;;;;;;16.20;59.13;99974.00;4970850;28;7342;-72
2022/12/26 00:55:48;;;;;;;;;;;;;;;16.22;59.03;99984.41;4984666;28;7218;-72
2022/12/26 00:58:14;;;;;;;;;;;;;;;16.20;58.69;99986.09;4977560;28;7189;-72
2022/12/26 01:00:40;;;;;;;;;;;;;;;16.25;58.61;99997.38;4952615;28;6812;-72
2022/12/26 01:03:07;;;;;;;;;;;;;;;16.28;58.89;99991.38;4955992;28;6971;-71
2022/12/26 01:05:33;;;;;;;;;;;;;;;16.30;58.84;100003.50;4943005;28;6983;-72
2022/12/26 01:07:59;;;;;;;;;;;;;;;16.31;58.65;100007.84;4957398;28;6932;-72
2022/12/26 01:10:26;;;;;;;;;;;;;;;16.33;58.60;100007.88;4974007;28;6772;-72
2022/12/26 01:12:52;;;;;;;;;;;;;;;16.34;58.30;100001.84;4953833;28;7325;-73
2022/12/26 01:15:18;;;;;;;;;;;;;;;16.32;58.54;99998.34;4950628;28;7667;-73
2022/12/26 01:17:44;;;;;;;;;;;;;;;16.31;58.20;99999.19;4926348;28;7081;-73
2022/12/26 01:20:10;;;;;;;;;;;;;;;16.35;58.25;99996.69;4955656;28;6804;-73
2022/12/26 01:22:36;;;;;;;;;;;;;;;16.36;58.45;100013.94;4952114;28;7017;-71
2022/12/26 01:25:03;;;;;;;;;;;;;;;16.38;58.11;100013.97;4959145;28;6804;-72
2022/12/26 01:27:29;;;;;;;;;;;;;;;16.40;58.43;100027.81;4960529;28;6800;-73
2022/12/26 01:29:55;;;;;;;;;;;;;;;16.35;58.18;100021.69;4955035;28;6768;-73
2022/12/26 01:32:21;;;;;;;;;;;;;;;16.27;57.94;100016.38;4959120;28;7205;-72
2022/12/26 01:34:48;;;;;;;;;;;;;;;16.18;58.51;100008.47;4987473;28;6784;-73
2022/12/26 01:37:15;;;;;;;;;;;;;;;16.08;58.53;100016.03;4951804;28;7170;-73
2022/12/26 01:39:41;;;;;;;;;;;;;;;16.02;58.89;100012.44;4957473;28;6964;-73
2022/12/26 01:42:21;;;;;;;;;;;;;;;15.94;59.08;100025.22;4985434;28;7043;-73
2022/12/26 01:45:05;;;;;;;;;;;;;;;15.91;58.85;100020.84;4961483;28;6808;-73
2022/12/26 01:47:50;;;;;;;;;;;;;;;15.85;59.55;100012.97;4960814;28;6980;-72
2022/12/26 01:50:36;;;;;;;;;;;;;;;15.85;59.74;100005.22;4962909;28;6808;-73
2022/12/26 01:53:16;;;;;;;;;;;;;;;15.85;59.39;100009.50;4957923;28;6879;-73
2022/12/26 01:55:52;;;;;;;;;;;;;;;15.80;59.69;100043.00;4960025;28;6792;-73
2022/12/26 01:58:32;;;;;;;;;;;;;;;15.80;59.71;100037.84;4975130;28;7131;-72
2022/12/26 02:01:03;;;;;;;;;;;;;;;15.81;60.18;100055.06;4975804;28;6796;-73
2022/12/26 02:06:15;;;;;;;;;;;;;;;15.79;59.58;100080.00;4961053;28;6809;-72
2022/12/26 02:08:42;;;;;;;;;;;;;;;15.77;59.76;100074.81;4958700;28;6800;-73
2022/12/26 02:11:30;;;;;;;;;;;;;;;15.73;59.59;100078.19;4957869;28;7000;-72
2022/12/26 02:13:56;;;;;;;;;;;;;;;15.68;59.89;100079.78;4961527;28;6872;-73
2022/12/26 02:16:21;;;;;;;;;;;;;;;15.66;60.31;100073.69;4962008;28;7253;-72
2022/12/26 02:18:47;;;;;;;;;;;;;;;15.62;60.11;100075.34;4957474;28;6959;-72
2022/12/26 02:21:31;;;;;;;;;;;;;;;15.60;59.82;100074.44;4955120;28;6891;-72
2022/12/26 02:24:56;;;;;;;;;;;;;;;15.54;60.37;100082.94;4954344;28;6893;-72
2022/12/26 02:28:01;;;;;;;;;;;;;;;15.48;60.96;100092.25;4953491;28;6824;-70
2022/12/26 02:30:37;;;;;;;;;;;;;;;15.44;61.05;100101.63;4960046;28;6804;-71
2022/12/26 02:33:38;;;;;;;;;;;;;;;15.42;60.52;100100.75;4959769;28;6808;-71
2022/12/26 02:36:10;;;;;;;;;;;;;;;15.38;60.61;100088.56;4957438;28;6985;-72
2022/12/26 02:39:19;;;;;;;;;;;;;;;15.35;61.56;100091.09;4957435;28;6920;-71
2022/12/26 02:42:51;;;;;;;;;;;;;;;15.28;61.53;100093.53;4959663;28;7019;-71
2022/12/26 02:48:28;;;;;;;;;;;;;;;15.18;61.39;100088.13;4957677;28;6820;-73
2022/12/26 03:17:18;;;;;;;;;;;;;;;15.05;62.28;100094.69;4958892;28;6820;-72
2022/12/26 03:18:21;;;;;;;;;;;;;;;15.05;62.32;100110.16;4962964;28;6851;-71
2022/12/26 03:20:48;;;;;;;;;;;;;;;15.05;61.96;100113.59;4955563;28;7007;-72
2022/12/26 03:23:19;;;;;;;;;;;;;;;15.07;62.34;100109.38;4958165;28;6947;-72
2022/12/26 03:28:42;;;;;;;;;;;;;;;15.10;62.31;100091.38;4960270;28;6808;-73
2022/12/26 03:31:13;;;;;;;;;;;;;;;15.11;62.18;100090.53;4950265;28;6808;-74
2022/12/26 03:37:07;;;;;;;;;;;;;;;15.19;61.69;100100.19;4973506;28;6804;-73
2022/12/26 04:19:25;;;;;;;;;;;;;;;15.20;62.61;100100.19;4957931;28;6812;-73
2022/12/26 04:45:21;;;;;;;;;;;;;;;15.21;62.55;100114.00;4957246;28;6813;-74
2022/12/26 04:50:34;;;;;;;;;;;;;;;15.21;62.26;100108.84;4953708;28;6804;-73
2022/12/26 04:52:59;;;;;;;;;;;;;;;15.18;61.99;100103.59;4971071;28;6875;-73
2022/12/26 04:55:32;;;;;;;;;;;;;;;15.18;62.44;100114.78;4954912;28;6863;-74
2022/12/26 04:57:58;;;;;;;;;;;;;;;15.17;62.34;100109.59;4972776;28;7039;-74
2022/12/26 05:00:26;;;;;;;;;;;;;;;15.14;62.28;100112.97;4937177;28;6820;-74
2022/12/26 05:11:27;;;;;;;;;;;;;;;15.04;62.67;100117.03;4934656;28;6808;-74
2022/12/26 05:13:55;;;;;;;;;;;;;;;15.05;62.28;100120.50;4924533;29;7751;-74
2022/12/26 05:30:22;;;;;;;;;;;;;;;14.76;62.18;100118.88;4940193;28;6812;-73
2022/12/26 05:35:33;;;;;;;;;;;;;;;14.66;62.03;100110.03;4962381;28;7602;-74
2022/12/26 05:37:59;;;;;;;;;;;;;;;14.65;61.85;100107.38;4937810;28;6792;-73
2022/12/26 05:40:25;;;;;;;;;;;;;;;14.63;61.87;100111.63;4930981;28;6788;-73
2022/12/26 05:42:51;;;;;;;;;;;;;;;14.61;61.88;100121.91;4963327;28;6764;-73
2022/12/26 05:45:16;;;;;;;;;;;;;;;14.60;61.42;100127.91;4957170;28;6772;-72
2022/12/26 05:47:43;;;;;;;;;;;;;;;14.57;61.84;100127.81;4939478;28;7655;-74
2022/12/26 05:50:09;;;;;;;;;;;;;;;14.55;61.73;100121.75;4925954;28;7705;-73
2022/12/26 05:52:34;;;;;;;;;;;;;;;14.54;61.79;100126.03;4956910;28;6780;-73
2022/12/26 05:55:02;;;;;;;;;;;;;;;14.52;61.85;100116.50;4940093;28;8323;-74
2022/12/26 05:57:28;;;;;;;;;;;;;;;14.48;61.45;100132.72;4957360;28;6800;-74
2022/12/26 05:59:54;;;;;;;;;;;;;;;14.46;62.07;100132.69;4949305;28;6776;-75
2022/12/26 06:02:19;;;;;;;;;;;;;;;14.44;61.83;100132.66;4945823;28;6780;-74
2022/12/26 06:04:45;;;;;;;;;;;;;;;14.43;62.06;100133.47;4964134;28;7288;-73
2022/12/26 06:07:11;;;;;;;;;;;;;;;14.44;61.99;100139.50;4962210;28;6942;-75
2022/12/26 06:09:36;;;;;;;;;;;;;;;14.45;62.46;100148.97;4966622;28;6764;-73
2022/12/26 06:12:02;;;;;;;;;;;;;;;14.46;62.74;100153.31;4965727;28;6815;-74
2022/12/26 06:14:28;;;;;;;;;;;;;;;14.47;62.73;100152.47;4940253;28;7101;-73
2022/12/26 06:16:53;;;;;;;;;;;;;;;14.49;62.23;100155.09;4934412;28;6788;-73
2022/12/26 06:19:19;;;;;;;;;;;;;;;14.52;62.79;100160.34;4948798;28;6764;-73
2022/12/26 06:21:45;;;;;;;;;;;;;;;14.52;62.08;100150.91;4948092;28;6942;-75
2022/12/26 06:24:12;;;;;;;;;;;;;;;14.52;63.03;100166.38;4961290;28;6812;-73
2022/12/26 06:26:39;;;;;;;;;;;;;;;14.56;62.92;100150.16;4950950;28;6816;-74
2022/12/26 06:29:05;;;;;;;;;;;;;;;14.58;62.65;100151.09;4953173;28;7969;-72
2022/12/26 06:31:31;;;;;;;;;;;;;;;14.58;63.14;100148.50;4946956;28;9302;-73
2022/12/26 06:33:57;;;;;;;;;;;;;;;14.60;63.27;100145.09;4965907;28;8614;-74
2022/12/26 06:36:26;;;;;;;;;;;;;;;14.60;62.44;100145.09;4918000;28;6976;-74
2022/12/26 06:38:52;;;;;;;;;;;;;;;14.56;62.58;100133.81;4934034;28;6785;-73
2022/12/26 06:41:22;;;;;;;;;;;;;;;14.52;61.53;100148.31;4953797;28;6776;-74
2022/12/26 06:43:48;;;;;;;;;;;;;;;14.51;61.83;100156.00;4947397;28;8259;-73
2022/12/26 06:46:21;;;;;;;;;;;;;;;14.48;62.26;100161.94;4959819;28;6784;-73
2022/12/26 06:48:47;;;;;;;;;;;;;;;14.45;61.90;100167.03;4950862;28;7066;-75
2022/12/26 06:51:18;;;;;;;;;;;;;;;14.42;61.87;100172.09;4969051;28;8370;-74
2022/12/26 06:53:43;;;;;;;;;;;;;;;14.41;61.53;100171.22;4958105;28;6828;-73
2022/12/26 06:56:12;;;;;;;;;;;;;;;14.37;61.82;100171.09;4968167;28;7358;-75
2022/12/26 06:58:38;;;;;;;;;;;;;;;14.34;61.28;100168.44;4963563;28;7075;-73
2022/12/26 07:01:16;;;;;;;;;;;;;;;14.30;61.52;100172.63;4944176;28;6800;-75
2022/12/26 07:03:43;;;;;;;;;;;;;;;14.27;61.38;100178.56;4963530;28;7882;-74
2022/12/26 07:06:30;;;;;;;;;;;;;;;14.22;61.35;100185.28;4937955;28;7518;-74
2022/12/26 07:09:01;;;;;;;;;;;;;;;14.19;61.92;100200.66;4960623;28;7971;-75
2022/12/26 07:11:34;;;;;;;;;;;;;;;14.20;61.95;100192.13;4949877;28;7526;-73
2022/12/26 07:14:00;;;;;;;;;;;;;;;14.20;61.89;100181.81;4931804;28;6812;-73
2022/12/26 07:16:26;;;;;;;;;;;;;;;14.18;60.92;100192.88;4941223;28;6971;-74
2022/12/26 07:18:54;;;;;;;;;;;;;;;14.14;61.10;100204.81;4948764;28;8080;-75
2022/12/26 07:21:20;;;;;;;;;;;;;;;14.13;61.99;100209.06;4931777;28;8375;-74
2022/12/26 07:23:46;;;;;;;;;;;;;;;14.12;61.83;100216.78;4935899;28;10551;-75
2022/12/26 07:26:11;;;;;;;;;;;;;;;14.11;61.76;100209.88;4950725;28;6991;-75
2022/12/26 07:28:37;;;;;;;;;;;;;;;14.14;60.96;100212.53;4946174;28;6768;-74
2022/12/26 07:31:04;;;;;;;;;;;;;;;14.12;61.95;100203.88;4967429;28;6772;-73
2022/12/26 07:33:30;;;;;;;;;;;;;;;14.11;61.63;100209.88;4950699;28;7214;-72
2022/12/26 07:36:05;;;;;;;;;;;;;;;14.11;61.72;100213.31;4958146;28;6971;-75
2022/12/26 07:38:31;;;;;;;;;;;;;;;14.11;62.00;100217.59;4966942;28;6796;-74
2022/12/26 07:40:58;;;;;;;;;;;;;;;14.11;62.41;100202.16;4938548;28;7166;-75
2022/12/26 07:43:25;;;;;;;;;;;;;;;14.11;61.76;100208.16;4952566;28;8435;-74
2022/12/26 07:45:51;;;;;;;;;;;;;;;14.14;61.34;100210.81;4936764;28;6817;-74
2022/12/26 07:48:17;;;;;;;;;;;;;;;14.15;61.34;100220.31;4967215;28;6792;-73
2022/12/26 07:50:46;;;;;;;;;;;;;;;14.16;62.11;100216.91;4953183;28;7301;-75
2022/12/26 07:53:13;;;;;;;;;;;;;;;14.19;61.69;100221.25;4953324;28;6816;-74
2022/12/26 07:55:39;;;;;;;;;;;;;;;14.21;62.04;100214.47;4969004;28;6978;-74
2022/12/26 07:58:05;;;;;;;;;;;;;;;14.22;61.13;100217.91;4955760;28;7014;-75
2022/12/26 08:00:30;;;;;;;;;;;;;;;14.25;61.25;100221.47;4951384;28;6870;-75
2022/12/26 08:02:56;;;;;;;;;;;;;;;14.27;61.92;100213.78;4949791;28;6776;-73
2022/12/26 08:05:21;;;;;;;;;;;;;;;14.28;61.82;100218.97;4977967;28;7027;-75
2022/12/26 08:07:47;;;;;;;;;;;;;;;14.29;61.43;100228.47;4985200;28;7126;-74
2022/12/26 08:10:16;;;;;;;;;;;;;;;14.32;61.46;100226.81;4955584;28;7098;-75
2022/12/26 08:12:41;;;;;;;;;;;;;;;14.29;61.43;100228.47;4952833;28;7270;-75
2022/12/26 08:15:09;;;;;;;;;;;;;;;14.29;61.58;100235.31;4952574;28;6772;-74
2022/12/26 08:17:34;;;;;;;;;;;;;;;14.29;61.38;100235.31;4976227;28;6991;-75
2022/12/26 08:20:00;;;;;;;;;;;;;;;14.29;61.04;100238.78;4972152;28;6768;-75
2022/12/26 08:22:27;;;;;;;;;;;;;;;14.26;61.01;100233.53;4956683;28;6852;-74
2022/12/26 08:24:52;;;;;;;;;;;;;;;14.25;61.28;100231.78;4946700;28;6793;-74
2022/12/26 08:27:18;;;;;;;;;;;;;;;14.24;61.28;100240.34;4955617;28;7848;-75
2022/12/26 08:29:44;;;;;;;;;;;;;;;14.26;61.59;100248.97;4949702;28;6951;-75
2022/12/26 08:32:09;;;;;;;;;;;;;;;14.28;61.26;100247.31;4963976;28;6840;-75
2022/12/26 08:34:35;;;;;;;;;;;;;;;14.30;61.42;100247.38;4954288;28;6991;-74
2022/12/26 08:37:01;;;;;;;;;;;;;;;14.32;60.71;100240.56;4954187;28;6800;-75
2022/12/26 08:39:27;;;;;;;;;;;;;;;14.34;61.17;100258.66;4950729;28;7900;-73
2022/12/26 08:41:52;;;;;;;;;;;;;;;14.36;61.80;100255.31;4982085;28;7234;-74
2022/12/26 08:44:18;;;;;;;;;;;;;;;14.45;61.69;100265.00;4949848;28;6845;-76
2022/12/26 08:46:45;;;;;;;;;;;;;;;14.53;61.59;100268.69;4944327;28;6851;-73
2022/12/26 08:49:11;;;;;;;;;;;;;;;14.62;60.93;100252.59;4961948;28;7084;-74
2022/12/26 08:51:37;;;;;;;;;;;;;;;14.70;60.70;100261.44;4937175;28;9893;-73
2022/12/26 08:54:04;;;;;;;;;;;;;;;14.76;60.68;100268.50;4942393;28;6947;-75
2022/12/26 08:56:30;;;;;;;;;;;;;;;14.80;60.59;100269.47;4955334;28;10382;-75
2022/12/26 08:58:56;;;;;;;;;;;;;;;14.82;60.28;100271.28;4946772;28;6776;-75
2022/12/26 09:01:24;;;;;;;;;;;;;;;14.85;60.20;100262.75;4962310;28;7238;-76
2022/12/26 09:03:59;;;;;;;;;;;;;;;14.88;60.71;100268.00;4969905;28;7043;-75
2022/12/26 09:06:26;;;;;;;;;;;;;;;14.92;60.50;100276.69;4959352;28;6816;-74
2022/12/26 09:08:52;;;;;;;;;;;;;;;14.94;59.86;100275.94;4954268;28;6804;-76
2022/12/26 09:11:25;;;;;;;;;;;;;;;14.95;59.62;100266.47;4942932;28;7768;-75
2022/12/26 09:13:51;;;;;;;;;;;;;;;14.93;59.68;100261.28;4960453;28;6880;-75
2022/12/26 09:16:30;;;;;;;;;;;;;;;14.93;60.04;100269.03;4953683;28;7111;-75
2022/12/26 09:18:59;;;;;;;;;;;;;;;14.91;59.65;100274.97;4959378;28;6803;-75
2022/12/26 09:21:26;;;;;;;;;;;;;;;14.90;59.43;100281.81;4976026;28;6796;-74
2022/12/26 09:24:01;;;;;;;;;;;;;;;14.91;59.12;100290.44;4982365;28;7620;-73
2022/12/26 09:26:28;;;;;;;;;;;;;;;14.91;59.37;100298.19;4949980;28;7002;-74
2022/12/26 09:28:54;;;;;;;;;;;;;;;14.93;59.42;100299.97;4958333;28;6851;-74
2022/12/26 09:31:24;;;;;;;;;;;;;;;14.94;59.31;100309.47;4959710;28;7011;-74
2022/12/26 09:33:52;;;;;;;;;;;;;;;14.99;59.24;100307.88;4941175;28;7422;-75
2022/12/26 09:36:23;;;;;;;;;;;;;;;15.04;59.21;100308.00;4961674;28;6804;-74
2022/12/26 09:38:50;;;;;;;;;;;;;;;15.11;58.52;100328.00;4955184;28;6799;-74
2022/12/26 09:41:47;;;;;;;;;;;;;;;15.19;59.13;100327.34;4970912;28;7025;-74
2022/12/26 09:44:43;;;;;;;;;;;;;;;15.22;58.73;100327.44;4950821;28;6808;-75
2022/12/26 09:47:30;;;;;;;;;;;;;;;15.29;59.06;100339.69;4954344;28;6986;-76
2022/12/26 09:50:08;;;;;;;;;;;;;;;15.34;58.68;100344.97;4956437;28;7210;-75
2022/12/26 09:52:55;;;;;;;;;;;;;;;15.37;58.56;100340.78;4955787;28;6788;-75
2022/12/26 09:55:59;;;;;;;;;;;;;;;15.41;58.44;100347.75;4954888;28;7605;-76
2022/12/26 09:58:26;;;;;;;;;;;;;;;15.44;57.99;100333.19;4951934;28;7202;-76
2022/12/26 10:01:06;;;;;;;;;;;;;;;15.44;57.88;100343.50;4952520;28;6978;-75
2022/12/26 10:03:40;;;;;;;;;;;;;;;15.45;57.54;100338.41;4966969;28;11180;-73
2022/12/26 10:06:20;;;;;;;;;;;;;;;15.49;57.29;100336.78;4948300;28;6800;-75
2022/12/26 10:09:19;;;;;;;;;;;;;;;15.48;57.17;100337.59;4975434;28;6784;-75
2022/12/26 10:12:06;;;;;;;;;;;;;;;15.49;56.98;100336.78;4944204;28;6952;-76
2022/12/26 10:15:13;;;;;;;;;;;;;;;15.49;57.04;100344.53;4938372;28;6963;-75
2022/12/26 10:18:04;;;;;;;;;;;;;;;15.51;57.00;100340.25;4945475;28;6816;-79
2022/12/26 10:21:10;;;;;;;;;;;;;;;15.55;57.16;100334.38;4948044;28;6800;-78
2022/12/26 10:23:50;;;;;;;;;;;;;;;15.55;57.07;100332.63;4948681;28;6820;-77
2022/12/26 10:26:40;;;;;;;;;;;;;;;15.58;56.77;100337.03;4972040;28;6819;-79
2022/12/26 10:29:09;;;;;;;;;;;;;;;15.62;56.42;100325.91;4978110;28;6793;-78
2022/12/26 10:31:48;;;;;;;;;;;;;;;15.64;56.36;100339.75;4953449;28;6986;-79
2022/12/26 10:34:40;;;;;;;;;;;;;;;15.64;56.55;100329.41;4978887;28;6788;-79
2022/12/26 10:37:34;;;;;;;;;;;;;;;15.61;55.92;100323.31;4966230;28;6796;-77
2022/12/26 10:40:18;;;;;;;;;;;;;;;15.54;55.93;100330.00;4962483;28;7157;-74
2022/12/26 10:42:53;;;;;;;;;;;;;;;15.52;55.65;100329.09;4963204;28;6871;-79
2022/12/26 10:45:42;;;;;;;;;;;;;;;15.48;55.27;100324.69;4987509;28;6819;-78
2022/12/26 10:48:12;;;;;;;;;;;;;;;15.48;55.64;100324.69;4963914;28;6816;-78
2022/12/26 10:50:43;;;;;;;;;;;;;;;15.49;55.32;100322.13;4963772;28;8580;-78
2022/12/26 10:53:13;;;;;;;;;;;;;;;15.55;55.89;100335.22;4986023;28;6887;-76
2022/12/26 10:55:39;;;;;;;;;;;;;;;15.62;55.48;100328.50;4942264;28;7151;-80
2022/12/26 10:58:21;;;;;;;;;;;;;;;15.69;55.28;100335.59;4963095;28;6784;-78
2022/12/26 11:00:47;;;;;;;;;;;;;;;15.77;55.21;100334.91;4975903;28;7220;-77
2022/12/26 11:03:19;;;;;;;;;;;;;;;15.79;55.03;100334.13;4962006;28;7011;-78
2022/12/26 11:05:55;;;;;;;;;;;;;;;15.84;55.26;100342.00;4994174;28;6848;-78
2022/12/26 11:08:28;;;;;;;;;;;;;;;15.88;55.12;100330.88;4994133;28;6977;-76
2022/12/26 11:11:13;;;;;;;;;;;;;;;15.92;55.46;100334.47;4964091;28;6800;-74
2022/12/26 11:13:55;;;;;;;;;;;;;;;15.94;55.26;100331.09;4963292;28;6808;-77
2022/12/26 11:16:29;;;;;;;;;;;;;;;15.96;54.99;100328.53;4959082;28;7153;-77
2022/12/26 11:18:56;;;;;;;;;;;;;;;15.99;55.15;100320.88;4979628;28;6985;-75
2022/12/26 11:21:31;;;;;;;;;;;;;;;16.02;54.90;100328.69;4965607;28;6792;-75
2022/12/26 11:24:05;;;;;;;;;;;;;;;16.02;54.48;100327.78;4958717;28;6865;-76
2022/12/26 11:26:31;;;;;;;;;;;;;;;15.99;54.14;100343.25;4959581;28;6788;-76
2022/12/26 11:29:24;;;;;;;;;;;;;;;15.97;54.49;100350.94;4964893;28;6772;-75
2022/12/26 11:31:57;;;;;;;;;;;;;;;15.95;54.19;100348.34;4996035;28;7200;-75
2022/12/26 11:34:34;;;;;;;;;;;;;;;15.89;54.59;100340.38;4963442;28;6796;-74
2022/12/26 11:37:02;;;;;;;;;;;;;;;15.76;54.46;100346.09;4989960;28;6868;-76
2022/12/26 11:39:36;;;;;;;;;;;;;;;15.67;54.63;100360.50;4989873;28;6792;-76
2022/12/26 11:42:11;;;;;;;;;;;;;;;15.72;54.98;100355.47;4951443;28;6839;-76
2022/12/26 11:44:44;;;;;;;;;;;;;;;15.87;55.39;100344.66;4993289;28;6996;-75
2022/12/26 11:47:16;;;;;;;;;;;;;;;16.18;55.25;100344.56;4960752;28;6799;-74
2022/12/26 11:50:20;;;;;;;;;;;;;;;16.39;54.32;100354.53;4959701;28;6807;-75
2022/12/26 11:52:54;;;;;;;;;;;;;;;16.35;54.53;100347.56;4962159;28;7093;-75
2022/12/26 11:55:23;;;;;;;;;;;;;;;16.32;54.06;100344.88;4986794;28;6944;-75
2022/12/26 11:58:14;;;;;;;;;;;;;;;16.31;54.26;100351.78;4991851;28;7261;-75
2022/12/26 12:00:41;;;;;;;;;;;;;;;16.28;54.58;100351.72;4958123;28;6800;-74
2022/12/26 12:03:13;;;;;;;;;;;;;;;16.20;54.56;100348.91;4954816;28;6880;-74
2022/12/26 12:05:44;;;;;;;;;;;;;;;16.11;55.00;100346.13;4977423;28;7001;-73
2022/12/26 12:08:41;;;;;;;;;;;;;;;16.06;55.01;100337.38;4953551;28;7871;-74
2022/12/26 12:11:24;;;;;;;;;;;;;;;16.02;55.35;100344.19;4956714;28;7098;-75
2022/12/26 12:14:16;;;;;;;;;;;;;;;16.03;55.42;100339.88;4959999;28;6918;-74
2022/12/26 12:17:01;;;;;;;;;;;;;;;16.04;55.61;100346.81;4990188;28;7241;-76
2022/12/26 12:20:05;;;;;;;;;;;;;;;16.02;55.60;100353.66;4957472;28;6808;-73
2022/12/26 12:23:12;;;;;;;;;;;;;;;15.95;55.50;100348.34;4987608;28;6792;-78
2022/12/26 12:25:59;;;;;;;;;;;;;;;15.87;55.42;100343.75;4987999;28;7265;-75
2022/12/26 12:29:16;;;;;;;;;;;;;;;15.82;55.61;100347.13;4991157;28;6947;-76
2022/12/26 12:32:18;;;;;;;;;;;;;;;15.77;55.53;100347.84;4969272;28;6988;-76
2022/12/26 12:35:19;;;;;;;;;;;;;;;15.72;55.80;100349.41;4958951;28;7282;-76
2022/12/26 12:38:26;;;;;;;;;;;;;;;15.62;55.80;100354.34;4959800;28;7169;-75
2022/12/26 12:41:38;;;;;;;;;;;;;;;15.50;56.07;100351.44;4986028;28;7210;-76
2022/12/26 12:44:19;;;;;;;;;;;;;;;15.33;56.04;100361.31;4960207;28;6899;-75
2022/12/26 12:47:18;;;;;;;;;;;;;;;15.19;56.21;100373.81;4959122;28;7110;-73
2022/12/26 12:50:34;;;;;;;;;;;;;;;15.01;56.60;100377.63;4980670;28;6820;-74
2022/12/26 12:53:41;;;;;;;;;;;;;;;14.84;57.04;100380.56;4959813;28;6835;-74
2022/12/26 12:56:33;;;;;;;;;;;;;;;14.66;57.48;100379.97;4957165;28;7861;-74
2022/12/26 12:59:20;;;;;;;;;;;;;;;14.53;57.81;100381.28;4954218;28;7286;-72
2022/12/26 13:01:54;;;;;;;;;;;;;;;14.41;57.57;100381.78;4956062;28;6815;-74
2022/12/26 13:04:32;;;;;;;;;;;;;;;14.36;57.82;100388.50;4963131;28;7033;-74
2022/12/26 13:07:25;;;;;;;;;;;;;;;14.27;57.95;100392.50;4961431;28;6808;-73
2022/12/26 13:10:00;;;;;;;;;;;;;;;14.24;57.90;100389.84;4954994;28;6816;-74
2022/12/26 13:12:40;;;;;;;;;;;;;;;14.22;57.82;100394.09;4958313;28;7027;-73
2022/12/26 13:15:27;;;;;;;;;;;;;;;14.20;58.36;100412.88;4983253;28;6880;-74
2022/12/26 13:18:12;;;;;;;;;;;;;;;14.17;59.02;100434.28;4953513;28;6812;-72
2022/12/26 13:20:54;;;;;;;;;;;;;;;14.03;58.40;100426.97;4974429;28;6816;-74
2022/12/26 13:27:08;;;;;;;;;;;;;;;13.47;57.58;100426.69;4948944;28;6804;-72
2022/12/26 13:29:40;;;;;;;;;;;;;;;13.24;57.97;100431.84;4952632;28;7058;-72
2022/12/26 13:32:32;;;;;;;;;;;;;;;13.10;57.93;100426.16;4970249;28;6816;-74
2022/12/26 13:35:02;;;;;;;;;;;;;;;13.02;59.05;100433.59;4935514;28;7250;-73
2022/12/26 13:37:34;;;;;;;;;;;;;;;12.96;59.18;100432.50;4968071;28;7022;-73
2022/12/26 13:40:14;;;;;;;;;;;;;;;12.91;58.33;100428.03;4958804;28;6776;-73
2022/12/26 13:45:56;;;;;;;;;;;;;;;12.86;59.20;100426.09;4957856;28;6808;-74
2022/12/26 13:48:31;;;;;;;;;;;;;;;12.86;59.35;100428.69;4970926;28;6942;-74
2022/12/26 13:51:03;;;;;;;;;;;;;;;12.86;58.92;100428.69;4962127;28;7008;-73
2022/12/26 13:53:40;;;;;;;;;;;;;;;12.87;58.32;100427.84;4965265;28;6820;-73
2022/12/26 13:56:18;;;;;;;;;;;;;;;12.89;58.54;100439.97;4987440;28;7072;-73
2022/12/26 13:59:17;;;;;;;;;;;;;;;12.89;58.68;100441.66;4954391;28;7181;-73
2022/12/26 14:02:14;;;;;;;;;;;;;;;12.89;58.85;100450.25;4971248;28;6816;-72
2022/12/26 14:05:19;;;;;;;;;;;;;;;12.92;58.38;100457.22;4956572;28;6863;-73
2022/12/26 14:08:08;;;;;;;;;;;;;;;12.95;57.89;100448.75;4979693;28;7881;-73
2022/12/26 14:11:01;;;;;;;;;;;;;;;12.96;58.84;100455.66;4958550;28;7530;-73
2022/12/26 14:13:55;;;;;;;;;;;;;;;12.96;58.55;100465.94;4949312;28;6816;-73
2022/12/26 14:16:43;;;;;;;;;;;;;;;12.98;59.05;100469.44;4941846;28;6997;-73
2022/12/26 14:19:23;;;;;;;;;;;;;;;13.00;58.89;100472.94;4955950;28;6954;-73
2022/12/26 14:22:29;;;;;;;;;;;;;;;13.03;58.26;100478.22;4953021;28;8256;-74
2022/12/26 14:25:26;;;;;;;;;;;;;;;13.05;58.80;100486.88;4950498;28;6816;-74
2022/12/26 14:28:33;;;;;;;;;;;;;;;13.06;58.31;100474.06;4955221;28;6824;-73
2022/12/26 14:31:30;;;;;;;;;;;;;;;13.08;58.31;100481.84;4951583;28;6816;-73
2022/12/26 14:34:16;;;;;;;;;;;;;;;13.09;58.21;100482.75;4952314;28;6800;-73
2022/12/26 14:37:01;;;;;;;;;;;;;;;13.08;58.88;100496.41;4984198;28;7642;-73
2022/12/26 14:40:05;;;;;;;;;;;;;;;13.06;59.04;100496.34;4953882;28;6867;-73
2022/12/26 14:45:27;;;;;;;;;;;;;;;13.03;59.04;100504.81;4977542;28;6968;-75
2022/12/26 14:47:53;;;;;;;;;;;;;;;13.02;57.86;100521.09;4957488;28;6867;-73
2022/12/26 14:50:31;;;;;;;;;;;;;;;13.02;58.00;100525.34;4969473;28;7081;-74
2022/12/26 14:53:27;;;;;;;;;;;;;;;13.01;57.85;100521.00;4955259;28;6784;-72
2022/12/26 14:56:13;;;;;;;;;;;;;;;12.98;57.83;100536.34;4953896;28;7215;-73
2022/12/26 14:58:47;;;;;;;;;;;;;;;12.94;58.09;100537.91;4957585;28;6804;-74
2022/12/26 15:01:14;;;;;;;;;;;;;;;12.91;58.48;100555.78;4958486;28;6879;-74
2022/12/26 15:04:02;;;;;;;;;;;;;;;12.89;58.13;100549.69;4954769;28;7824;-74
2022/12/26 15:06:51;;;;;;;;;;;;;;;12.83;57.43;100555.47;4952458;28;6811;-73
2022/12/26 15:10:11;;;;;;;;;;;;;;;12.78;57.44;100565.56;4964129;28;6804;-74
2022/12/26 15:13:24;;;;;;;;;;;;;;;12.71;58.21;100568.72;4977512;28;6804;-74
2022/12/26 15:16:36;;;;;;;;;;;;;;;12.65;57.75;100576.16;4979776;28;6884;-74
2022/12/26 15:19:54;;;;;;;;;;;;;;;12.59;57.86;100584.50;4955302;28;7630;-73
2022/12/26 15:22:41;;;;;;;;;;;;;;;12.50;57.39;100594.38;4985149;28;6858;-74
2022/12/26 15:25:57;;;;;;;;;;;;;;;12.45;57.71;100621.56;4953939;28;6812;-73
2022/12/26 15:28:40;;;;;;;;;;;;;;;12.42;57.64;100613.72;4948322;28;6812;-74
2022/12/26 15:31:26;;;;;;;;;;;;;;;12.36;57.03;100612.66;4957259;28;7022;-73
2022/12/26 15:34:10;;;;;;;;;;;;;;;12.32;56.97;100628.75;4963799;28;7987;-75
2022/12/26 15:36:50;;;;;;;;;;;;;;;12.29;57.15;100640.56;4958036;28;7007;-74
2022/12/26 15:39:24;;;;;;;;;;;;;;;12.26;57.40;100646.44;4955352;28;6824;-75
2022/12/26 15:42:37;;;;;;;;;;;;;;;12.21;56.85;100635.97;4950096;28;6987;-73
2022/12/26 15:45:34;;;;;;;;;;;;;;;12.17;57.12;100640.91;4965529;28;7450;-73
2022/12/26 15:48:47;;;;;;;;;;;;;;;12.13;57.84;100652.75;4958747;28;6788;-74
2022/12/26 15:51:30;;;;;;;;;;;;;;;12.10;57.69;100649.16;4956788;28;6824;-74
2022/12/26 15:54:51;;;;;;;;;;;;;;;12.05;56.65;100651.50;4960205;28;8031;-74